Time;durP1;ratioP1;P1;durP2;ratioP2;P2;SDS_P1;SDS_P2;PMS_P1;PMS_P2;Temp;Humidity;BMP_temperature;BMP_pressure;BME280_temperature;BME280_humidity;BME280_pressure;Samples;Min_cycle;Max_cycle;Signal;HPM_P1;HPM_P2
2022/04/28 00:01:56;;;;;;;12.07;11.00;;;12.40;48.10;;;;;;20492;6849;308533;-76
2022/04/28 00:04:23;;;;;;;10.98;10.15;;;12.50;47.80;;;;;;20760;6834;117866;-76
2022/04/28 00:06:48;;;;;;;10.87;10.07;;;12.30;48.20;;;;;;20753;6834;118049;-76
2022/04/28 00:09:14;;;;;;;10.93;10.13;;;11.60;49.50;;;;;;20739;6834;121804;-77
2022/04/28 00:11:40;;;;;;;10.90;9.90;;;11.60;49.50;;;;;;20756;6834;118045;-76
2022/04/28 00:14:08;;;;;;;10.20;9.50;;;11.40;50.10;;;;;;20756;6834;117572;-76
2022/04/28 00:16:33;;;;;;;10.50;9.60;;;11.20;50.50;;;;;;20751;6834;121179;-76
2022/04/28 00:18:58;;;;;;;10.55;9.85;;;11.10;50.90;;;;;;20756;6834;121179;-76
2022/04/28 00:21:24;;;;;;;12.20;11.43;;;11.00;51.30;;;;;;20523;6834;307633;-77
2022/04/28 00:23:49;;;;;;;10.57;9.90;;;11.20;50.70;;;;;;20754;6834;121736;-76
2022/04/28 00:26:16;;;;;;;11.98;11.18;;;11.40;50.20;;;;;;20541;6834;306130;-76
2022/04/28 00:28:41;;;;;;;11.00;10.20;;;11.40;50.20;;;;;;20750;6834;117415;-76
2022/04/28 00:31:07;;;;;;;11.13;10.20;;;11.40;50.40;;;;;;20756;6834;118638;-76
2022/04/28 00:33:32;;;;;;;10.65;9.85;;;11.20;50.70;;;;;;20733;6834;117708;-76
2022/04/28 00:35:58;;;;;;;10.82;10.00;;;11.00;51.20;;;;;;20755;6833;117323;-76
2022/04/28 00:38:23;;;;;;;11.00;10.10;;;10.80;51.60;;;;;;20755;6834;117484;-76
2022/04/28 00:40:49;;;;;;;11.35;10.45;;;10.70;51.90;;;;;;20754;6834;117462;-75
2022/04/28 00:43:18;;;;;;;11.25;10.27;;;10.60;52.40;;;;;;20737;6834;123238;-76
2022/04/28 00:45:48;;;;;;;11.13;10.30;;;10.50;52.20;;;;;;20714;6849;118285;-76
2022/04/28 00:50:59;;;;;;;12.30;11.50;;;10.40;52.70;;;;;;20541;6834;306777;-76
2022/04/28 00:53:25;;;;;;;11.10;10.30;;;10.70;51.90;;;;;;20682;6849;118110;-76
2022/04/28 00:55:51;;;;;;;12.40;11.60;;;11.10;51.30;;;;;;20532;6834;282558;-76
2022/04/28 00:58:17;;;;;;;11.70;10.80;;;11.00;51.20;;;;;;20533;6834;312142;-77
2022/04/28 01:00:42;;;;;;;10.77;9.93;;;11.40;50.50;;;;;;20704;6849;118074;-77
2022/04/28 01:03:08;;;;;;;11.93;11.23;;;11.30;51.30;;;;;;20536;6834;282076;-77
2022/04/28 01:05:34;;;;;;;12.63;11.73;;;11.50;50.20;;;;;;20516;6834;308948;-79
2022/04/28 01:08:00;;;;;;;10.17;9.47;;;11.70;49.60;;;;;;20749;6834;117437;-79
2022/04/28 01:10:26;;;;;;;11.75;10.95;;;11.50;49.80;;;;;;20530;6834;309756;-77
2022/04/28 01:12:51;;;;;;;10.70;9.90;;;11.60;49.40;;;;;;20700;6849;117592;-77
2022/04/28 01:15:17;;;;;;;12.05;11.15;;;11.50;49.90;;;;;;20521;6834;307680;-77
2022/04/28 01:17:43;;;;;;;11.27;10.47;;;11.50;49.40;;;;;;20702;6849;117742;-77
2022/04/28 01:20:10;;;;;;;12.30;11.45;;;11.40;49.80;;;;;;20538;6834;342081;-77
2022/04/28 01:22:36;;;;;;;12.15;11.32;;;11.70;49.20;;;;;;20539;6834;307725;-77
2022/04/28 01:25:07;;;;;;;10.27;9.60;;;11.70;49.20;;;;;;20745;6834;117436;-77
2022/04/28 01:27:31;;;;;;;10.40;9.70;;;11.10;50.10;;;;;;20719;6834;118314;-77
2022/04/28 01:29:58;;;;;;;11.90;11.20;;;11.10;50.10;;;;;;20531;6834;307644;-77
2022/04/28 01:32:25;;;;;;;12.07;11.37;;;11.40;49.60;;;;;;20536;6834;307249;-77
2022/04/28 01:34:50;;;;;;;10.57;9.87;;;11.40;49.60;;;;;;20697;6849;118873;-76
2022/04/28 01:37:17;;;;;;;11.50;10.60;;;11.30;49.90;;;;;;20734;6834;117346;-77
2022/04/28 01:39:43;;;;;;;11.37;10.30;;;11.00;50.40;;;;;;20746;6834;118184;-76
2022/04/28 01:42:08;;;;;;;11.77;10.97;;;10.70;51.00;;;;;;20485;6849;278268;-77
2022/04/28 01:44:35;;;;;;;12.53;11.67;;;10.80;50.70;;;;;;20535;6834;343717;-76
2022/04/28 01:47:02;;;;;;;12.52;11.73;;;11.20;50.20;;;;;;20539;6833;279010;-77
2022/04/28 01:49:28;;;;;;;12.85;12.05;;;11.40;49.50;;;;;;20515;6834;308082;-77
2022/04/28 01:55:00;;;;;;;12.13;11.37;;;11.40;49.70;;;;;;20542;6834;319609;-77
2022/04/28 01:57:25;;;;;;;12.37;11.48;;;11.40;49.40;;;;;;20453;6849;283108;-77
2022/04/28 01:59:51;;;;;;;11.90;10.93;;;11.50;49.00;;;;;;20744;6834;117650;-76
2022/04/28 02:02:16;;;;;;;10.85;10.10;;;11.30;49.50;;;;;;20744;6834;119040;-76
2022/04/28 02:04:42;;;;;;;10.00;9.40;;;11.00;50.30;;;;;;20693;6849;118007;-77
2022/04/28 02:07:07;;;;;;;9.57;8.85;;;10.70;51.00;;;;;;20748;6834;117149;-76
2022/04/28 02:09:33;;;;;;;9.60;9.00;;;10.50;51.60;;;;;;20726;6834;121308;-77
2022/04/28 02:11:58;;;;;;;11.15;10.25;;;10.30;52.10;;;;;;20743;6834;117803;-76
2022/04/28 02:14:24;;;;;;;10.10;9.40;;;10.20;52.50;;;;;;20754;6834;118733;-77
2022/04/28 02:16:50;;;;;;;10.40;9.50;;;10.10;52.70;;;;;;20751;6834;117320;-77
2022/04/28 02:19:16;;;;;;;12.10;11.32;;;10.00;52.80;;;;;;20515;6834;303733;-77
2022/04/28 02:21:41;;;;;;;11.17;10.37;;;10.20;51.60;;;;;;20703;6849;119074;-77
2022/04/28 02:24:07;;;;;;;12.50;11.70;;;10.30;51.60;;;;;;20523;6834;283485;-77
2022/04/28 02:26:33;;;;;;;11.93;11.12;;;10.80;50.20;;;;;;20536;6834;308452;-76
2022/04/28 02:28:58;;;;;;;10.80;10.00;;;10.80;50.20;;;;;;20704;6849;118600;-77
2022/04/28 02:31:24;;;;;;;10.60;9.70;;;10.40;51.00;;;;;;20738;6834;118356;-77
2022/04/28 02:33:50;;;;;;;11.47;10.67;;;10.40;51.00;;;;;;20543;6834;308451;-77
2022/04/28 02:36:16;;;;;;;10.52;9.73;;;10.60;51.40;;;;;;20756;6834;121385;-77
2022/04/28 02:38:41;;;;;;;11.68;10.93;;;10.50;50.80;;;;;;20542;6834;315087;-76
2022/04/28 02:41:07;;;;;;;12.37;11.57;;;10.60;50.20;;;;;;20486;6849;313277;-77
2022/04/28 02:43:32;;;;;;;10.63;9.77;;;10.90;50.20;;;;;;20715;6834;122260;-77
2022/04/28 02:45:58;;;;;;;11.55;10.85;;;10.80;50.00;;;;;;20525;6834;337569;-77
2022/04/28 02:48:23;;;;;;;11.43;10.73;;;10.80;49.80;;;;;;20532;6834;308128;-77
2022/04/28 02:50:49;;;;;;;11.27;10.43;;;11.00;49.50;;;;;;20738;6834;122686;-77
2022/04/28 02:53:14;;;;;;;10.87;10.27;;;10.90;49.90;;;;;;20495;6834;337208;-76
2022/04/28 02:55:40;;;;;;;12.52;11.70;;;10.90;49.30;;;;;;20478;6849;308622;-77
2022/04/28 02:58:06;;;;;;;9.88;9.18;;;11.10;48.60;;;;;;20748;6834;117477;-76
2022/04/28 03:00:31;;;;;;;11.13;10.43;;;10.90;49.10;;;;;;20536;6833;342356;-77
2022/04/28 03:02:57;;;;;;;10.10;9.50;;;10.90;49.00;;;;;;20701;6849;117389;-76
2022/04/28 03:05:22;;;;;;;11.67;10.90;;;10.70;49.40;;;;;;20524;6834;278694;-77
2022/04/28 03:10:52;;;;;;;12.48;11.57;;;11.20;48.20;;;;;;20533;6834;308439;-77
2022/04/28 03:13:17;;;;;;;10.67;9.97;;;11.10;48.10;;;;;;20684;6849;117998;-77
2022/04/28 03:15:42;;;;;;;10.50;9.77;;;10.90;48.80;;;;;;20748;6834;117566;-77
2022/04/28 03:18:07;;;;;;;10.37;9.57;;;10.50;49.60;;;;;;20762;6834;117479;-77
2022/04/28 03:20:33;;;;;;;11.50;10.48;;;9.90;51.90;;;;;;20760;6834;119152;-75
2022/04/28 03:22:59;;;;;;;13.38;12.37;;;9.90;51.80;;;;;;20497;6849;337702;-73
2022/04/28 03:25:25;;;;;;;12.23;11.32;;;10.10;51.00;;;;;;20684;6849;123834;-74
2022/04/28 03:27:50;;;;;;;10.63;9.93;;;10.10;51.20;;;;;;20743;6834;117648;-74
2022/04/28 03:30:16;;;;;;;12.73;11.80;;;9.90;52.60;;;;;;20542;6834;337204;-74
2022/04/28 03:32:42;;;;;;;10.25;9.55;;;10.00;51.00;;;;;;20757;6834;117228;-74
2022/04/28 03:35:10;;;;;;;10.83;9.97;;;10.10;51.10;;;;;;20753;6834;117206;-74
2022/04/28 03:37:33;;;;;;;11.60;10.80;;;9.90;52.60;;;;;;20516;6834;278613;-74
2022/04/28 03:40:00;;;;;;;10.60;9.80;;;10.00;51.10;;;;;;20747;6834;117343;-74
2022/04/28 03:42:25;;;;;;;13.30;12.40;;;10.00;51.10;;;;;;20536;6834;290454;-72
2022/04/28 03:44:51;;;;;;;12.93;12.10;;;10.20;50.50;;;;;;20538;6834;278993;-72
2022/04/28 03:47:17;;;;;;;12.82;12.02;;;10.70;49.80;;;;;;20520;6834;333214;-72
2022/04/28 03:49:43;;;;;;;10.27;9.47;;;10.60;49.70;;;;;;20743;6834;123414;-72
2022/04/28 03:52:08;;;;;;;11.82;10.93;;;10.40;49.80;;;;;;20530;6834;307171;-73
2022/04/28 03:54:34;;;;;;;10.00;9.35;;;10.40;49.40;;;;;;20757;6834;118119;-72
2022/04/28 03:56:59;;;;;;;11.73;10.93;;;10.20;49.90;;;;;;20533;6834;307230;-72
2022/04/28 03:59:25;;;;;;;10.17;9.50;;;10.30;49.40;;;;;;20722;6834;118031;-72
2022/04/28 04:01:52;;;;;;;12.05;11.35;;;10.20;49.30;;;;;;20526;6834;278645;-72
2022/04/28 04:04:17;;;;;;;10.57;9.83;;;10.20;49.30;;;;;;20742;6834;117498;-72
2022/04/28 04:06:43;;;;;;;10.93;10.03;;;9.80;51.30;;;;;;20737;6834;118161;-72
2022/04/28 04:09:09;;;;;;;11.17;10.47;;;9.80;51.30;;;;;;20496;6849;279605;-72
2022/04/28 04:11:34;;;;;;;10.37;9.57;;;9.90;51.10;;;;;;20737;6832;117927;-72
2022/04/28 04:14:00;;;;;;;14.07;13.07;;;9.80;51.40;;;;;;20541;6834;337042;-72
2022/04/28 04:16:25;;;;;;;11.25;10.43;;;10.00;50.20;;;;;;20760;6834;117598;-72
2022/04/28 04:18:51;;;;;;;13.55;12.55;;;9.90;51.50;;;;;;20547;6834;307241;-73
2022/04/28 04:21:19;;;;;;;11.40;10.60;;;10.00;51.40;;;;;;20740;6834;150004;-73
2022/04/28 04:23:43;;;;;;;12.03;11.03;;;10.00;50.70;;;;;;20747;6834;118583;-75
2022/04/28 04:26:08;;;;;;;11.88;11.07;;;9.70;52.20;;;;;;20542;6834;307582;-74
2022/04/28 04:28:34;;;;;;;12.80;11.90;;;9.90;51.90;;;;;;20493;6849;338164;-73
2022/04/28 04:33:46;;;;;;;11.23;10.30;;;10.20;50.40;;;;;;20753;6834;118190;-73
2022/04/28 04:36:11;;;;;;;9.48;8.82;;;9.80;51.90;;;;;;20733;6834;117730;-72
2022/04/28 04:38:37;;;;;;;9.43;8.73;;;9.60;52.60;;;;;;20747;6834;116996;-72
2022/04/28 04:41:03;;;;;;;11.57;10.77;;;9.60;52.80;;;;;;20544;6834;312403;-75
2022/04/28 04:43:30;;;;;;;12.07;11.20;;;9.60;52.80;;;;;;20523;6834;319375;-77
2022/04/28 04:45:55;;;;;;;11.15;10.48;;;10.00;51.20;;;;;;20542;6834;297626;-73
2022/04/28 04:48:22;;;;;;;10.25;9.55;;;10.30;50.50;;;;;;20756;6834;118287;-78
2022/04/28 04:50:46;;;;;;;11.33;10.63;;;10.10;51.20;;;;;;20519;6834;288195;-75
2022/04/28 04:53:12;;;;;;;11.20;10.40;;;10.20;50.30;;;;;;20536;6834;311844;-76
2022/04/28 04:55:38;;;;;;;10.95;10.25;;;10.40;49.80;;;;;;20518;6834;307624;-74
2022/04/28 04:58:03;;;;;;;12.05;11.05;;;10.60;49.50;;;;;;20541;6834;282656;-75
2022/04/28 05:00:29;;;;;;;10.23;9.53;;;10.50;50.20;;;;;;20705;6849;117691;-77
2022/04/28 05:02:55;;;;;;;10.13;9.43;;;10.50;49.60;;;;;;20711;6849;121727;-73
2022/04/28 05:05:21;;;;;;;9.53;8.87;;;10.20;50.50;;;;;;20691;6849;122285;-76
2022/04/28 05:07:47;;;;;;;14.25;13.18;;;10.10;50.90;;;;;;20542;6834;325139;-75
2022/04/28 05:10:14;;;;;;;11.83;10.93;;;10.00;50.80;;;;;;20758;6834;117948;-76
2022/04/28 05:12:39;;;;;;;10.57;9.77;;;10.00;51.00;;;;;;20705;6849;117846;-75
2022/04/28 05:15:05;;;;;;;10.32;9.50;;;9.90;52.70;;;;;;20755;6834;117249;-76
2022/04/28 05:17:31;;;;;;;11.17;10.27;;;9.80;53.40;;;;;;20727;6834;141285;-72
2022/04/28 05:19:58;;;;;;;11.32;10.60;;;9.60;53.80;;;;;;20753;6834;117781;-75
2022/04/28 05:22:22;;;;;;;11.10;10.27;;;9.60;54.30;;;;;;20691;6847;114725;-75
2022/04/28 05:24:47;;;;;;;14.37;13.17;;;9.50;54.60;;;;;;20546;6834;332002;-75
2022/04/28 05:27:14;;;;;;;12.77;11.57;;;9.80;54.40;;;;;;20750;6834;118568;-75
2022/04/28 05:29:38;;;;;;;12.48;11.38;;;10.00;53.40;;;;;;20662;6859;120668;-75
2022/04/28 05:32:04;;;;;;;14.50;13.37;;;10.00;53.70;;;;;;20529;6841;306693;-75
2022/04/28 05:34:30;;;;;;;12.30;11.40;;;10.30;53.20;;;;;;20725;6841;117849;-75
2022/04/28 05:36:56;;;;;;;12.23;11.43;;;10.40;53.00;;;;;;20501;6845;312315;-75
2022/04/28 05:39:22;;;;;;;12.43;11.63;;;11.00;51.60;;;;;;20464;6853;279049;-74
2022/04/28 05:41:47;;;;;;;10.33;9.73;;;10.90;51.50;;;;;;20696;6851;118183;-74
2022/04/28 05:46:59;;;;;;;7.07;6.53;;;10.70;52.50;;;;;;20690;6856;118112;-74
2022/04/28 05:49:24;;;;;;;8.43;7.80;;;10.50;53.60;;;;;;20661;6856;123668;-74
2022/04/28 05:51:50;;;;;;;9.10;8.40;;;10.60;54.60;;;;;;20472;6856;311381;-74
2022/04/28 05:54:16;;;;;;;8.70;8.20;;;11.00;53.40;;;;;;20468;6856;307250;-74
2022/04/28 05:56:43;;;;;;;8.53;7.83;;;11.60;51.60;;;;;;20690;6856;117225;-73
2022/04/28 05:59:10;;;;;;;7.80;7.30;;;11.80;51.60;;;;;;20684;6856;117708;-73
2022/04/28 06:01:36;;;;;;;9.20;8.60;;;11.80;51.80;;;;;;20451;6856;307301;-73
2022/04/28 06:04:01;;;;;;;8.43;7.82;;;12.00;50.00;;;;;;20675;6856;117635;-73
2022/04/28 06:06:26;;;;;;;7.72;7.03;;;12.20;50.40;;;;;;20683;6856;117680;-76
2022/04/28 06:08:52;;;;;;;7.62;7.22;;;12.10;50.70;;;;;;20685;6856;117369;-72
2022/04/28 06:11:18;;;;;;;7.78;7.18;;;12.00;51.00;;;;;;20660;6856;121239;-75
2022/04/28 06:13:43;;;;;;;6.75;6.35;;;11.90;51.20;;;;;;20684;6856;118948;-73
2022/04/28 06:16:08;;;;;;;11.48;10.38;;;11.80;51.60;;;;;;20678;6856;117381;-74
2022/04/28 06:18:35;;;;;;;7.73;7.23;;;11.80;52.10;;;;;;20728;6841;117545;-74
2022/04/28 06:21:00;;;;;;;8.50;7.90;;;11.80;52.10;;;;;;20476;6856;301400;-72
2022/04/28 06:23:26;;;;;;;7.60;6.90;;;12.20;50.90;;;;;;20653;6856;117596;-73
2022/04/28 06:25:51;;;;;;;7.22;6.62;;;12.40;51.10;;;;;;20472;6856;277338;-73
2022/04/28 06:28:17;;;;;;;9.10;8.40;;;12.80;50.10;;;;;;20457;6856;307326;-73
2022/04/28 06:30:43;;;;;;;10.07;9.10;;;13.30;49.40;;;;;;20687;6856;117253;-72
2022/04/28 06:33:11;;;;;;;11.40;10.17;;;13.30;49.30;;;;;;20688;6854;117448;-72
2022/04/28 06:35:36;;;;;;;9.60;8.80;;;13.30;49.80;;;;;;20673;6855;118042;-72
2022/04/28 06:38:02;;;;;;;10.80;9.97;;;13.20;50.00;;;;;;20471;6855;307252;-72
2022/04/28 06:40:27;;;;;;;10.20;9.50;;;13.50;47.70;;;;;;20473;6856;293930;-73
2022/04/28 06:42:53;;;;;;;10.30;9.40;;;13.90;46.60;;;;;;20686;6856;117316;-72
2022/04/28 06:45:18;;;;;;;9.87;9.00;;;14.10;47.60;;;;;;20667;6856;118512;-73
2022/04/28 06:47:44;;;;;;;8.85;8.20;;;14.20;48.40;;;;;;20477;6856;276948;-73
2022/04/28 06:50:10;;;;;;;9.63;8.85;;;14.80;46.70;;;;;;20687;6855;117218;-73
2022/04/28 06:52:36;;;;;;;8.17;7.60;;;14.80;46.70;;;;;;20686;6855;117231;-73
2022/04/28 06:55:01;;;;;;;8.13;7.53;;;15.00;47.60;;;;;;20725;6841;117529;-74
2022/04/28 06:57:27;;;;;;;7.80;7.20;;;15.10;48.10;;;;;;20711;6841;118285;-71
2022/04/28 06:59:52;;;;;;;8.53;8.03;;;15.20;47.60;;;;;;20479;6856;300900;-72
2022/04/28 07:02:20;;;;;;;8.05;7.57;;;15.50;43.90;;;;;;20478;6856;277492;-71
2022/04/28 07:04:44;;;;;;;8.85;8.25;;;16.00;42.70;;;;;;20466;6856;307393;-71
2022/04/28 07:07:09;;;;;;;9.45;8.85;;;16.50;41.20;;;;;;20470;6856;336835;-71
2022/04/28 07:09:35;;;;;;;6.80;6.40;;;16.80;40.50;;;;;;20667;6856;118783;-71
2022/04/28 07:12:00;;;;;;;8.35;7.85;;;16.70;41.80;;;;;;20476;6856;277824;-71
2022/04/28 07:14:27;;;;;;;7.97;7.47;;;17.20;39.40;;;;;;20482;6856;277957;-72
2022/04/28 07:16:52;;;;;;;8.37;7.77;;;17.20;39.40;;;;;;20684;6856;117727;-69
2022/04/28 07:19:19;;;;;;;8.27;7.77;;;17.20;40.90;;;;;;20454;6856;336320;-70
2022/04/28 07:21:44;;;;;;;7.63;7.20;;;17.30;39.00;;;;;;20479;6856;307756;-71
2022/04/28 07:24:11;;;;;;;6.70;6.30;;;17.50;38.30;;;;;;20690;6856;121387;-71
2022/04/28 07:26:37;;;;;;;7.10;6.70;;;17.40;39.50;;;;;;20469;6856;289537;-71
2022/04/28 07:29:05;;;;;;;7.60;7.10;;;17.50;39.00;;;;;;20686;6856;117303;-71
2022/04/28 07:31:28;;;;;;;7.35;6.85;;;17.40;40.00;;;;;;20440;6856;277839;-72
2022/04/28 07:33:53;;;;;;;6.77;6.40;;;17.40;39.40;;;;;;20688;6856;117815;-72
2022/04/28 07:36:19;;;;;;;6.80;6.20;;;17.40;40.20;;;;;;20677;6856;117341;-71
2022/04/28 07:38:44;;;;;;;6.50;6.03;;;17.30;41.00;;;;;;20686;6856;124465;-71
2022/04/28 07:41:10;;;;;;;7.12;6.72;;;17.10;41.40;;;;;;20479;6856;278811;-72
2022/04/28 07:43:36;;;;;;;6.63;6.13;;;17.40;40.90;;;;;;20673;6856;118613;-72
2022/04/28 07:46:02;;;;;;;7.30;6.90;;;17.40;40.90;;;;;;20481;6854;281581;-72
2022/04/28 07:48:28;;;;;;;6.93;6.37;;;17.60;38.50;;;;;;20694;6855;123015;-71
2022/04/28 07:50:55;;;;;;;6.27;5.93;;;17.70;41.50;;;;;;20682;6855;117087;-72
2022/04/28 07:53:21;;;;;;;6.80;6.40;;;17.70;41.50;;;;;;20458;6855;306500;-71
2022/04/28 07:56:10;;;;;;;5.93;5.62;;;18.20;40.30;;;;;;20689;6856;118992;-72
2022/04/28 07:58:13;;;;;;;5.53;5.13;;;18.20;40.30;;;;;;20630;6856;117140;-72
2022/04/28 08:00:38;;;;;;;5.90;5.50;;;18.30;41.00;;;;;;20685;6855;117240;-71
2022/04/28 08:03:04;;;;;;;6.40;6.10;;;18.30;41.40;;;;;;20474;6856;307263;-71
2022/04/28 08:05:29;;;;;;;6.13;5.73;;;18.60;38.10;;;;;;20459;6856;306793;-71
2022/04/28 08:07:55;;;;;;;7.00;6.60;;;19.10;36.30;;;;;;20481;6856;306409;-71
2022/04/28 08:10:20;;;;;;;8.03;7.37;;;19.50;36.90;;;;;;20482;6856;287157;-71
2022/04/28 08:12:46;;;;;;;6.67;6.27;;;19.70;36.00;;;;;;20686;6856;121060;-71
2022/04/28 08:15:11;;;;;;;5.97;5.67;;;19.70;37.20;;;;;;20473;6856;310967;-71
2022/04/28 08:17:37;;;;;;;5.47;5.15;;;19.80;34.80;;;;;;20672;6856;117240;-72
2022/04/28 08:20:03;;;;;;;6.07;5.67;;;19.70;36.30;;;;;;20473;6856;307677;-71
2022/04/28 08:22:28;;;;;;;6.63;6.23;;;19.80;34.40;;;;;;20686;6856;117650;-72
2022/04/28 08:24:54;;;;;;;6.33;5.83;;;19.70;36.10;;;;;;20475;6856;307363;-72
2022/04/28 08:27:24;;;;;;;6.20;5.90;;;19.80;34.50;;;;;;20667;6856;117637;-72
2022/04/28 08:29:45;;;;;;;5.72;5.32;;;19.80;36.20;;;;;;20461;6856;277933;-71
2022/04/28 08:32:12;;;;;;;5.87;5.47;;;19.90;34.50;;;;;;20688;6856;118957;-71
2022/04/28 08:34:37;;;;;;;6.10;5.70;;;20.00;36.10;;;;;;20474;6856;281738;-71
2022/04/28 08:37:03;;;;;;;6.00;5.50;;;20.20;34.90;;;;;;20483;6856;301642;-71
2022/04/28 08:39:29;;;;;;;5.47;4.97;;;20.50;33.80;;;;;;20672;6856;118764;-70
2022/04/28 08:41:55;;;;;;;6.00;5.60;;;20.40;35.00;;;;;;20477;6856;277402;-72
2022/04/28 08:44:23;;;;;;;6.25;5.95;;;20.50;33.30;;;;;;20480;6856;311220;-70
2022/04/28 08:46:52;;;;;;;5.80;5.50;;;20.70;32.80;;;;;;20468;6856;336396;-70
2022/04/28 08:49:21;;;;;;;4.80;4.60;;;20.80;32.90;;;;;;20666;6856;118443;-71
2022/04/28 08:51:47;;;;;;;8.47;7.67;;;20.70;34.80;;;;;;20438;6856;307245;-70
2022/04/28 08:54:12;;;;;;;6.37;5.87;;;20.80;33.70;;;;;;20460;6856;309149;-72
2022/04/28 08:56:39;;;;;;;5.83;5.40;;;21.00;33.40;;;;;;20472;6854;306819;-75
2022/04/28 08:59:05;;;;;;;5.53;5.03;;;21.20;32.70;;;;;;20678;6855;122276;-72
2022/04/28 09:01:30;;;;;;;5.57;5.17;;;21.10;34.20;;;;;;20646;6855;122748;-71
2022/04/28 09:03:56;;;;;;;5.47;5.17;;;20.90;35.10;;;;;;20471;6856;296095;-73
2022/04/28 09:06:29;;;;;;;5.53;5.13;;;21.00;32.20;;;;;;20466;6856;281927;-71
2022/04/28 09:08:55;;;;;;;5.10;4.80;;;21.30;33.30;;;;;;20674;6855;117388;-72
2022/04/28 09:11:19;;;;;;;5.73;5.43;;;21.30;34.80;;;;;;20659;6856;117696;-70
2022/04/28 09:16:30;;;;;;;5.40;5.10;;;21.40;32.20;;;;;;20481;6856;281973;-79
2022/04/28 09:18:55;;;;;;;5.70;5.28;;;21.80;31.90;;;;;;20473;6856;312317;-76
2022/04/28 09:21:21;;;;;;;4.90;4.60;;;22.20;31.00;;;;;;20455;6856;277656;-76
2022/04/28 09:23:51;;;;;;;3.90;3.58;;;22.50;32.40;;;;;;20692;6856;121154;-77
2022/04/28 09:26:16;;;;;;;3.40;3.20;;;22.40;32.20;;;;;;20678;6856;118410;-76
2022/04/28 09:28:41;;;;;;;3.07;2.83;;;22.30;31.60;;;;;;20694;6856;117839;-77
2022/04/28 09:31:08;;;;;;;3.50;3.20;;;22.10;31.10;;;;;;20481;6856;307017;-76
2022/04/28 09:33:32;;;;;;;3.20;3.00;;;22.20;26.40;;;;;;20660;6856;118577;-75
2022/04/28 09:35:58;;;;;;;3.57;3.37;;;22.10;28.20;;;;;;20693;6856;117776;-77
2022/04/28 09:38:24;;;;;;;4.00;3.43;;;21.90;29.10;;;;;;20690;6856;118517;-76
2022/04/28 09:43:35;;;;;;;3.00;2.80;;;21.60;30.00;;;;;;20673;6856;123458;-77
2022/04/28 09:46:01;;;;;;;3.43;3.17;;;21.50;30.30;;;;;;20476;6856;306881;-77
2022/04/28 09:48:33;;;;;;;5.20;4.97;;;21.60;25.90;;;;;;20693;6856;117292;-76
2022/04/28 09:51:04;;;;;;;3.27;3.07;;;21.70;28.40;;;;;;20460;6856;277544;-76
2022/04/28 09:53:30;;;;;;;3.37;3.17;;;21.80;26.60;;;;;;20429;6856;277156;-77
2022/04/28 09:55:55;;;;;;;3.37;3.08;;;22.00;25.60;;;;;;20415;6856;277132;-76
2022/04/28 09:58:21;;;;;;;3.17;2.93;;;22.20;25.50;;;;;;20686;6856;117202;-76
2022/04/28 10:00:47;;;;;;;5.03;3.20;;;22.20;27.20;;;;;;20667;6856;124514;-78
2022/04/28 10:03:12;;;;;;;3.40;3.20;;;21.90;28.10;;;;;;20468;6856;310841;-78
2022/04/28 10:05:38;;;;;;;3.10;2.90;;;22.00;26.20;;;;;;20448;6856;321463;-77
2022/04/28 10:08:03;;;;;;;3.30;3.10;;;22.10;25.90;;;;;;20672;6854;118665;-76
2022/04/28 10:10:31;;;;;;;3.12;2.92;;;22.20;27.50;;;;;;20474;6855;277531;-75
2022/04/28 10:12:57;;;;;;;3.67;3.20;;;22.20;25.90;;;;;;20689;6855;120937;-78
2022/04/28 10:15:24;;;;;;;3.30;3.00;;;22.20;27.90;;;;;;20645;6856;127516;-72
2022/04/28 10:17:48;;;;;;;3.30;3.10;;;22.10;29.10;;;;;;20463;6856;307613;-71
2022/04/28 10:20:17;;;;;;;3.30;3.10;;;22.50;25.20;;;;;;20470;6856;277402;-72
2022/04/28 10:22:43;;;;;;;3.23;3.13;;;22.50;25.20;;;;;;20673;6856;117277;-72
2022/04/28 10:33:25;;;;;;;3.23;3.03;;;22.10;28.30;;;;;;20670;6856;119424;-71
2022/04/28 10:35:50;;;;;;;3.70;3.30;;;21.90;29.10;;;;;;20478;6856;336050;-70
2022/04/28 10:38:23;;;;;;;3.62;3.42;;;22.00;26.90;;;;;;20478;6856;276988;-71
2022/04/28 10:41:02;;;;;;;3.50;3.33;;;22.30;25.90;;;;;;20685;6856;117330;-70
2022/04/28 10:43:34;;;;;;;3.40;3.20;;;22.30;27.40;;;;;;20457;6856;306197;-71
2022/04/28 10:46:09;;;;;;;2.80;2.70;;;22.30;25.10;;;;;;20685;6856;117973;-70
2022/04/28 10:48:44;;;;;;;3.50;3.20;;;22.10;27.10;;;;;;20475;6856;312864;-70
2022/04/28 10:51:16;;;;;;;3.47;3.27;;;22.30;25.90;;;;;;20678;6856;118488;-70
2022/04/28 10:54:01;;;;;;;4.60;4.20;;;22.20;27.40;;;;;;20687;6856;117546;-70
2022/04/28 10:56:30;;;;;;;3.80;3.57;;;22.00;27.80;;;;;;20657;6856;117635;-70
2022/04/28 10:58:58;;;;;;;3.80;3.40;;;21.70;28.50;;;;;;20320;6841;278040;-71
2022/04/28 11:01:27;;;;;;;3.40;3.30;;;21.70;26.40;;;;;;20696;6841;123560;-71
2022/04/28 11:03:56;;;;;;;3.20;3.00;;;21.70;27.80;;;;;;20461;6856;306673;-70
2022/04/28 11:06:21;;;;;;;3.50;3.30;;;21.80;28.00;;;;;;20669;6856;118791;-72
2022/04/28 11:08:47;;;;;;;3.80;3.60;;;21.80;28.20;;;;;;20723;6841;117586;-70
2022/04/28 11:11:13;;;;;;;3.47;3.28;;;21.70;28.20;;;;;;20507;6841;306462;-70
2022/04/28 11:13:38;;;;;;;2.80;2.70;;;21.70;25.90;;;;;;20658;6856;117327;-71
2022/04/28 11:16:04;;;;;;;4.37;3.10;;;21.70;27.80;;;;;;20510;6841;307722;-72
2022/04/28 11:18:30;;;;;;;3.30;3.03;;;21.70;26.10;;;;;;20731;6841;117108;-74
2022/04/28 11:20:59;;;;;;;3.37;3.17;;;21.70;27.80;;;;;;20684;6854;117335;-72
2022/04/28 11:23:24;;;;;;;3.13;2.93;;;21.60;28.10;;;;;;20659;6855;126867;-73
2022/04/28 11:25:49;;;;;;;3.10;2.80;;;21.40;28.50;;;;;;20687;6855;117909;-70
2022/04/28 11:28:15;;;;;;;2.90;2.78;;;21.30;29.00;;;;;;20450;6856;309775;-70
2022/04/28 11:30:41;;;;;;;3.00;2.90;;;21.50;27.00;;;;;;20660;6856;117638;-71
2022/04/28 11:33:07;;;;;;;3.80;3.50;;;21.70;28.40;;;;;;20458;6856;298942;-71
2022/04/28 11:35:32;;;;;;;4.67;3.20;;;21.80;26.50;;;;;;20666;6856;118007;-70
2022/04/28 11:37:57;;;;;;;3.40;3.30;;;21.80;27.80;;;;;;20691;6856;117766;-70
2022/04/28 11:40:24;;;;;;;3.80;3.50;;;21.70;28.30;;;;;;20476;6856;276935;-71
2022/04/28 11:42:57;;;;;;;3.40;3.20;;;21.80;25.80;;;;;;20692;6856;118261;-71
2022/04/28 11:45:23;;;;;;;3.23;3.10;;;21.80;27.20;;;;;;20454;6856;277562;-72
2022/04/28 11:47:49;;;;;;;3.40;3.20;;;21.80;27.00;;;;;;20475;6856;306699;-76
2022/04/28 11:50:17;;;;;;;3.72;3.50;;;21.90;26.10;;;;;;20473;6856;311609;-75
2022/04/28 11:52:44;;;;;;;3.10;3.00;;;22.20;25.10;;;;;;20647;6856;118882;-75
2022/04/28 11:55:11;;;;;;;3.47;3.30;;;22.00;27.00;;;;;;20465;6856;340918;-74
2022/04/28 11:57:39;;;;;;;3.60;3.40;;;22.00;26.30;;;;;;20444;6856;307167;-74
2022/04/28 12:00:03;;;;;;;3.43;3.23;;;22.20;26.10;;;;;;20722;6841;117656;-74
2022/04/28 12:02:33;;;;;;;2.80;2.70;;;21.90;28.20;;;;;;20711;6841;117205;-74
2022/04/28 12:04:58;;;;;;;3.60;3.40;;;21.80;28.00;;;;;;20682;6856;122079;-75
2022/04/28 12:07:31;;;;;;;3.12;2.92;;;21.60;29.20;;;;;;20663;6856;118388;-74
2022/04/28 12:15:27;;;;;;;3.27;3.00;;;21.40;28.80;;;;;;20673;6856;118650;-78
2022/04/28 12:20:52;;;;;;;2.70;2.50;;;21.10;28.60;;;;;;20692;6856;117089;-72
2022/04/28 12:23:34;;;;;;;3.03;2.83;;;21.00;29.00;;;;;;20450;6856;307286;-73
2022/04/28 12:26:00;;;;;;;3.43;3.17;;;21.20;26.50;;;;;;20670;6856;117731;-75
2022/04/28 12:28:28;;;;;;;3.10;2.90;;;21.30;28.20;;;;;;20464;6856;312157;-74
2022/04/28 12:30:54;;;;;;;3.50;3.20;;;21.40;25.80;;;;;;20679;6856;117811;-74
2022/04/28 12:33:19;;;;;;;3.42;2.62;;;21.50;28.00;;;;;;20667;6854;117674;-75
2022/04/28 12:35:45;;;;;;;3.17;2.97;;;21.40;28.60;;;;;;20476;6855;308073;-76
2022/04/28 12:38:10;;;;;;;3.30;3.08;;;21.50;26.00;;;;;;20657;6856;117748;-74
2022/04/28 12:40:39;;;;;;;3.70;3.40;;;21.50;27.60;;;;;;20680;6855;117259;-75
2022/04/28 12:43:05;;;;;;;3.10;2.80;;;21.40;27.90;;;;;;20679;6855;117625;-74
2022/04/28 12:45:40;;;;;;;3.63;3.37;;;21.20;28.40;;;;;;20457;6856;287186;-72
2022/04/28 12:48:03;;;;;;;3.60;3.40;;;21.40;26.20;;;;;;20467;6855;282228;-75
2022/04/28 12:50:29;;;;;;;3.57;3.37;;;21.70;26.60;;;;;;20729;6841;117951;-73
2022/04/28 12:52:54;;;;;;;3.40;3.20;;;21.70;27.70;;;;;;20481;6856;276666;-74
2022/04/28 12:55:21;;;;;;;3.10;3.00;;;21.70;26.20;;;;;;20673;6856;117522;-73
2022/04/28 12:57:46;;;;;;;3.37;3.07;;;21.70;27.80;;;;;;20685;6856;118563;-74
2022/04/28 13:00:13;;;;;;;3.10;3.00;;;21.60;28.10;;;;;;20695;6856;117540;-74
2022/04/28 13:02:38;;;;;;;3.70;3.50;;;21.40;28.30;;;;;;20703;6856;67279;-72